This is the latest recevied weather packets stored in our database for station/object OE2SWM. If no packets are shown the sender has not sent any weather packets the latest 10 day(s).
| Time | Temp. | Humidity | Pressure | Rain* | Wind** | Luminosity | Snow |
|---|---|---|---|---|---|---|---|
| 1777800600 | 18.89° C | 47% | 971 hPa | 0 mm | - | - | - |
| 1777800000 | 17.78° C | 49% | 971 hPa | 0 mm | - | - | - |
| 1777799400 | 17.78° C | 51% | 971 hPa | 0 mm | - | - | - |
| 1777798800 | 16.67° C | 49% | 971 hPa | 0 mm | - | - | - |
| 1777798200 | 16.67° C | 51% | 971 hPa | 0 mm | - | - | - |
| 1777797600 | 16.67° C | 53% | 971 hPa | 0 mm | - | - | - |
| 1777797000 | 15.56° C | 52% | 971 hPa | 0 mm | - | - | - |
| 1777796400 | 15.56° C | 53% | 971 hPa | 0 mm | - | - | - |
| 1777795800 | 15° C | 53% | 971 hPa | 0 mm | - | - | - |
| 1777795200 | 15° C | 55% | 971 hPa | 0 mm | - | - | - |
| 1777794600 | 13.89° C | 57% | 972 hPa | 0 mm | - | - | - |
| 1777794000 | 13.89° C | 57% | 972 hPa | 0 mm | - | - | - |
| 1777793400 | 13.89° C | 55% | 972 hPa | 0 mm | - | - | - |
| 1777792800 | 13.89° C | 58% | 972 hPa | 0 mm | - | - | - |
| 1777792200 | 13.89° C | 60% | 972 hPa | 0 mm | - | - | - |
| 1777791600 | 12.78° C | 63% | 972 hPa | 0 mm | - | - | - |
| 1777791000 | 12.78° C | 61% | 972 hPa | 0 mm | - | - | - |
| 1777790400 | 12.78° C | 59% | 972 hPa | 0 mm | - | - | - |
| 1777789800 | 12.78° C | 64% | 972 hPa | 0 mm | - | - | - |
| 1777789200 | 12.78° C | 62% | 972 hPa | 0 mm | - | - | - |
| 1777788600 | 11.67° C | 63% | 972 hPa | 0 mm | - | - | - |
| 1777788000 | 11.67° C | 64% | 972 hPa | 0 mm | - | - | - |
| 1777787400 | 11.67° C | 62% | 972 hPa | 0 mm | - | - | - |
| 1777786800 | 12.78° C | 57% | 972 hPa | 0 mm | - | - | - |
| 1777786200 | 15.56° C | 52% | 972 hPa | 0 mm | - | - | - |
* Rain latest hour (hover to see other rain measurements)
** Current wind speed in m/s (hover to see current wind gust speed)